sensor_id;sensor_type;location;lat;lon;timestamp;P1;durP1;ratioP1;P2;durP2;ratioP2
62037;SDS011;47991;42.974;12.082;2022-08-21T02:20:32;6.70;;;3.00;;
62037;SDS011;47991;42.974;12.082;2022-08-21T02:23:10;8.90;;;3.40;;
62037;SDS011;47991;42.974;12.082;2022-08-21T02:25:44;10.50;;;4.00;;
62037;SDS011;47991;42.974;12.082;2022-08-21T02:28:18;8.40;;;3.50;;
62037;SDS011;47991;42.974;12.082;2022-08-21T02:30:47;8.30;;;3.80;;
62037;SDS011;47991;42.974;12.082;2022-08-21T02:33:16;7.80;;;3.30;;
62037;SDS011;47991;42.974;12.082;2022-08-21T02:35:52;9.70;;;3.40;;
62037;SDS011;47991;42.974;12.082;2022-08-21T02:38:24;9.30;;;3.80;;
62037;SDS011;47991;42.974;12.082;2022-08-21T02:41:19;8.50;;;3.20;;
62037;SDS011;47991;42.974;12.082;2022-08-21T02:43:48;8.90;;;3.50;;
62037;SDS011;47991;42.974;12.082;2022-08-21T02:46:22;9.10;;;3.60;;
62037;SDS011;47991;42.974;12.082;2022-08-21T02:48:51;7.50;;;3.90;;
62037;SDS011;47991;42.974;12.082;2022-08-21T02:51:19;7.70;;;3.80;;
62037;SDS011;47991;42.974;12.082;2022-08-21T02:53:56;9.60;;;3.80;;
62037;SDS011;47991;42.974;12.082;2022-08-21T02:56:29;8.10;;;3.90;;
62037;SDS011;47991;42.974;12.082;2022-08-21T02:59:00;10.60;;;3.30;;
62037;SDS011;47991;42.974;12.082;2022-08-21T03:02:07;7.60;;;3.30;;
62037;SDS011;47991;42.974;12.082;2022-08-21T03:08:05;5.50;;;3.00;;
62037;SDS011;47991;42.974;12.082;2022-08-21T03:10:49;6.90;;;3.60;;
62037;SDS011;47991;42.974;12.082;2022-08-21T03:13:27;8.00;;;3.70;;
62037;SDS011;47991;42.974;12.082;2022-08-21T03:16:00;8.30;;;4.20;;
62037;SDS011;47991;42.974;12.082;2022-08-21T03:18:35;8.00;;;3.40;;
62037;SDS011;47991;42.974;12.082;2022-08-21T03:21:16;8.10;;;3.90;;
62037;SDS011;47991;42.974;12.082;2022-08-21T03:23:45;8.80;;;3.50;;
62037;SDS011;47991;42.974;12.082;2022-08-21T03:26:23;6.80;;;3.40;;
62037;SDS011;47991;42.974;12.082;2022-08-21T03:28:54;5.90;;;3.20;;
62037;SDS011;47991;42.974;12.082;2022-08-21T03:31:25;7.90;;;3.70;;
62037;SDS011;47991;42.974;12.082;2022-08-21T03:34:20;6.80;;;3.40;;
62037;SDS011;47991;42.974;12.082;2022-08-21T03:38:05;10.50;;;3.60;;
62037;SDS011;47991;42.974;12.082;2022-08-21T03:40:41;7.70;;;3.40;;
62037;SDS011;47991;42.974;12.082;2022-08-21T03:46:11;7.30;;;3.50;;
62037;SDS011;47991;42.974;12.082;2022-08-21T03:48:45;10.30;;;3.30;;
62037;SDS011;47991;42.974;12.082;2022-08-21T03:54:41;8.30;;;3.80;;
62037;SDS011;47991;42.974;12.082;2022-08-21T03:57:13;9.30;;;3.70;;
62037;SDS011;47991;42.974;12.082;2022-08-21T03:59:49;8.30;;;3.60;;
62037;SDS011;47991;42.974;12.082;2022-08-21T04:02:20;9.60;;;3.90;;
62037;SDS011;47991;42.974;12.082;2022-08-21T04:04:55;7.90;;;3.40;;
62037;SDS011;47991;42.974;12.082;2022-08-21T04:10:57;6.70;;;3.20;;
62037;SDS011;47991;42.974;12.082;2022-08-21T04:13:41;7.70;;;3.30;;
62037;SDS011;47991;42.974;12.082;2022-08-21T04:16:13;9.30;;;3.80;;
62037;SDS011;47991;42.974;12.082;2022-08-21T04:18:41;10.40;;;4.40;;
62037;SDS011;47991;42.974;12.082;2022-08-21T04:21:10;11.30;;;3.80;;
62037;SDS011;47991;42.974;12.082;2022-08-21T04:23:42;8.50;;;4.20;;
62037;SDS011;47991;42.974;12.082;2022-08-21T04:26:14;9.00;;;4.00;;
62037;SDS011;47991;42.974;12.082;2022-08-21T04:29:00;9.70;;;4.20;;
62037;SDS011;47991;42.974;12.082;2022-08-21T04:31:34;8.80;;;3.60;;
62037;SDS011;47991;42.974;12.082;2022-08-21T04:37:15;8.90;;;2.90;;
62037;SDS011;47991;42.974;12.082;2022-08-21T04:39:48;7.90;;;3.50;;
62037;SDS011;47991;42.974;12.082;2022-08-21T04:45:32;8.90;;;3.80;;
62037;SDS011;47991;42.974;12.082;2022-08-21T04:48:02;10.70;;;4.20;;
62037;SDS011;47991;42.974;12.082;2022-08-21T04:54:06;10.50;;;4.30;;
62037;SDS011;47991;42.974;12.082;2022-08-21T04:56:53;11.40;;;3.70;;
62037;SDS011;47991;42.974;12.082;2022-08-21T04:59:43;7.70;;;4.40;;
62037;SDS011;47991;42.974;12.082;2022-08-21T05:02:17;5.70;;;3.10;;
62037;SDS011;47991;42.974;12.082;2022-08-21T05:04:52;7.50;;;3.80;;
62037;SDS011;47991;42.974;12.082;2022-08-21T05:07:25;9.20;;;3.60;;
62037;SDS011;47991;42.974;12.082;2022-08-21T05:09:56;10.20;;;3.80;;
62037;SDS011;47991;42.974;12.082;2022-08-21T05:12:59;9.00;;;4.00;;
62037;SDS011;47991;42.974;12.082;2022-08-21T05:15:30;10.20;;;3.10;;
62037;SDS011;47991;42.974;12.082;2022-08-21T05:17:58;7.50;;;3.30;;
62037;SDS011;47991;42.974;12.082;2022-08-21T05:20:25;7.70;;;3.00;;
62037;SDS011;47991;42.974;12.082;2022-08-21T05:22:52;7.20;;;3.30;;
62037;SDS011;47991;42.974;12.082;2022-08-21T05:25:21;7.50;;;3.80;;
62037;SDS011;47991;42.974;12.082;2022-08-21T05:27:49;6.80;;;3.20;;
62037;SDS011;47991;42.974;12.082;2022-08-21T05:30:23;8.30;;;3.40;;
62037;SDS011;47991;42.974;12.082;2022-08-21T05:32:56;11.60;;;3.30;;
62037;SDS011;47991;42.974;12.082;2022-08-21T05:35:34;9.60;;;3.40;;
62037;SDS011;47991;42.974;12.082;2022-08-21T05:38:05;6.70;;;3.20;;
62037;SDS011;47991;42.974;12.082;2022-08-21T05:40:36;6.80;;;3.20;;
62037;SDS011;47991;42.974;12.082;2022-08-21T05:43:04;9.40;;;3.40;;
62037;SDS011;47991;42.974;12.082;2022-08-21T05:45:45;7.30;;;3.20;;
62037;SDS011;47991;42.974;12.082;2022-08-21T05:48:14;9.00;;;3.20;;
62037;SDS011;47991;42.974;12.082;2022-08-21T05:50:53;7.30;;;3.20;;
62037;SDS011;47991;42.974;12.082;2022-08-21T05:53:29;9.10;;;3.90;;
62037;SDS011;47991;42.974;12.082;2022-08-21T05:55:56;10.40;;;5.60;;
62037;SDS011;47991;42.974;12.082;2022-08-21T05:58:38;8.70;;;5.20;;
62037;SDS011;47991;42.974;12.082;2022-08-21T06:01:11;10.30;;;5.00;;
62037;SDS011;47991;42.974;12.082;2022-08-21T06:03:39;10.10;;;5.10;;
62037;SDS011;47991;42.974;12.082;2022-08-21T06:06:12;10.00;;;5.80;;
62037;SDS011;47991;42.974;12.082;2022-08-21T06:08:43;11.50;;;7.20;;
62037;SDS011;47991;42.974;12.082;2022-08-21T06:11:31;9.80;;;5.20;;
62037;SDS011;47991;42.974;12.082;2022-08-21T06:13:59;8.80;;;5.00;;
62037;SDS011;47991;42.974;12.082;2022-08-21T06:16:33;10.90;;;5.50;;
62037;SDS011;47991;42.974;12.082;2022-08-21T06:19:00;16.30;;;6.00;;
62037;SDS011;47991;42.974;12.082;2022-08-21T06:24:33;14.20;;;9.40;;
62037;SDS011;47991;42.974;12.082;2022-08-21T06:27:05;9.70;;;6.20;;
62037;SDS011;47991;42.974;12.082;2022-08-21T06:29:34;8.80;;;5.30;;
62037;SDS011;47991;42.974;12.082;2022-08-21T06:32:05;9.90;;;4.70;;
62037;SDS011;47991;42.974;12.082;2022-08-21T06:34:36;9.90;;;4.80;;
62037;SDS011;47991;42.974;12.082;2022-08-21T06:37:10;8.40;;;4.90;;
62037;SDS011;47991;42.974;12.082;2022-08-21T06:39:44;8.90;;;4.60;;
62037;SDS011;47991;42.974;12.082;2022-08-21T06:42:13;9.00;;;5.00;;
62037;SDS011;47991;42.974;12.082;2022-08-21T06:44:44;8.20;;;4.60;;
62037;SDS011;47991;42.974;12.082;2022-08-21T06:47:17;9.40;;;5.00;;
62037;SDS011;47991;42.974;12.082;2022-08-21T06:49:54;9.90;;;4.80;;
62037;SDS011;47991;42.974;12.082;2022-08-21T06:52:23;9.30;;;4.90;;
62037;SDS011;47991;42.974;12.082;2022-08-21T06:54:56;9.80;;;5.20;;
62037;SDS011;47991;42.974;12.082;2022-08-21T06:57:26;9.20;;;4.80;;
62037;SDS011;47991;42.974;12.082;2022-08-21T06:59:56;9.50;;;4.70;;
62037;SDS011;47991;42.974;12.082;2022-08-21T07:02:23;8.30;;;4.50;;
62037;SDS011;47991;42.974;12.082;2022-08-21T07:04:54;9.50;;;4.30;;
62037;SDS011;47991;42.974;12.082;2022-08-21T07:07:24;8.80;;;4.00;;
62037;SDS011;47991;42.974;12.082;2022-08-21T07:09:52;8.40;;;3.70;;
62037;SDS011;47991;42.974;12.082;2022-08-21T07:12:19;9.00;;;3.80;;
62037;SDS011;47991;42.974;12.082;2022-08-21T07:14:56;8.50;;;3.80;;
62037;SDS011;47991;42.974;12.082;2022-08-21T07:17:26;9.70;;;4.20;;
62037;SDS011;47991;42.974;12.082;2022-08-21T07:19:53;9.10;;;3.70;;
62037;SDS011;47991;42.974;12.082;2022-08-21T07:22:20;6.90;;;3.60;;
62037;SDS011;47991;42.974;12.082;2022-08-21T07:24:54;12.60;;;4.30;;
62037;SDS011;47991;42.974;12.082;2022-08-21T07:27:30;8.10;;;3.60;;
62037;SDS011;47991;42.974;12.082;2022-08-21T07:30:01;8.00;;;3.70;;
62037;SDS011;47991;42.974;12.082;2022-08-21T07:32:33;8.80;;;4.20;;
62037;SDS011;47991;42.974;12.082;2022-08-21T07:35:02;8.50;;;4.00;;
62037;SDS011;47991;42.974;12.082;2022-08-21T07:37:33;9.20;;;3.80;;
62037;SDS011;47991;42.974;12.082;2022-08-21T07:40:03;10.20;;;3.90;;
62037;SDS011;47991;42.974;12.082;2022-08-21T07:42:31;13.10;;;4.60;;
62037;SDS011;47991;42.974;12.082;2022-08-21T07:44:59;10.20;;;4.60;;
62037;SDS011;47991;42.974;12.082;2022-08-21T07:47:26;7.60;;;3.80;;
62037;SDS011;47991;42.974;12.082;2022-08-21T07:49:54;10.20;;;4.30;;
62037;SDS011;47991;42.974;12.082;2022-08-21T07:52:21;9.10;;;3.80;;
62037;SDS011;47991;42.974;12.082;2022-08-21T07:54:48;7.80;;;3.80;;
62037;SDS011;47991;42.974;12.082;2022-08-21T07:57:16;9.00;;;3.70;;
62037;SDS011;47991;42.974;12.082;2022-08-21T07:59:43;8.70;;;3.90;;
62037;SDS011;47991;42.974;12.082;2022-08-21T08:02:21;7.60;;;4.20;;
62037;SDS011;47991;42.974;12.082;2022-08-21T08:04:54;8.40;;;3.60;;
62037;SDS011;47991;42.974;12.082;2022-08-21T08:07:28;8.20;;;3.80;;
62037;SDS011;47991;42.974;12.082;2022-08-21T08:09:55;9.80;;;3.60;;
62037;SDS011;47991;42.974;12.082;2022-08-21T08:12:23;9.70;;;4.00;;
62037;SDS011;47991;42.974;12.082;2022-08-21T08:14:56;8.10;;;4.20;;
62037;SDS011;47991;42.974;12.082;2022-08-21T08:17:24;8.40;;;4.00;;
62037;SDS011;47991;42.974;12.082;2022-08-21T08:19:53;8.70;;;4.00;;
62037;SDS011;47991;42.974;12.082;2022-08-21T08:22:22;9.80;;;3.90;;
62037;SDS011;47991;42.974;12.082;2022-08-21T08:24:52;8.60;;;3.70;;
62037;SDS011;47991;42.974;12.082;2022-08-21T08:27:19;10.60;;;4.40;;
62037;SDS011;47991;42.974;12.082;2022-08-21T08:29:47;8.00;;;3.80;;
62037;SDS011;47991;42.974;12.082;2022-08-21T08:32:15;7.60;;;3.40;;
62037;SDS011;47991;42.974;12.082;2022-08-21T08:34:41;8.50;;;3.60;;
62037;SDS011;47991;42.974;12.082;2022-08-21T08:37:09;9.30;;;3.10;;
62037;SDS011;47991;42.974;12.082;2022-08-21T08:39:36;8.50;;;3.00;;
62037;SDS011;47991;42.974;12.082;2022-08-21T08:42:07;6.40;;;2.90;;
62037;SDS011;47991;42.974;12.082;2022-08-21T08:44:41;5.20;;;2.70;;
62037;SDS011;47991;42.974;12.082;2022-08-21T08:47:12;5.60;;;2.20;;
62037;SDS011;47991;42.974;12.082;2022-08-21T08:50:05;5.80;;;2.60;;
62037;SDS011;47991;42.974;12.082;2022-08-21T08:55:03;8.80;;;2.60;;
62037;SDS011;47991;42.974;12.082;2022-08-21T08:57:36;5.80;;;2.30;;
62037;SDS011;47991;42.974;12.082;2022-08-21T09:00:16;4.90;;;2.30;;
62037;SDS011;47991;42.974;12.082;2022-08-21T09:02:46;7.30;;;2.50;;
62037;SDS011;47991;42.974;12.082;2022-08-21T09:06:00;5.80;;;2.50;;
62037;SDS011;47991;42.974;12.082;2022-08-21T09:08:46;4.60;;;2.10;;
62037;SDS011;47991;42.974;12.082;2022-08-21T09:11:15;6.10;;;2.00;;
62037;SDS011;47991;42.974;12.082;2022-08-21T09:22:33;3.30;;;1.70;;
62037;SDS011;47991;42.974;12.082;2022-08-21T09:25:27;3.60;;;2.10;;
62037;SDS011;47991;42.974;12.082;2022-08-21T09:27:57;3.10;;;1.50;;
62037;SDS011;47991;42.974;12.082;2022-08-21T09:30:28;4.30;;;1.80;;
62037;SDS011;47991;42.974;12.082;2022-08-21T09:32:57;4.60;;;2.20;;
62037;SDS011;47991;42.974;12.082;2022-08-21T09:35:24;3.00;;;1.70;;
62037;SDS011;47991;42.974;12.082;2022-08-21T09:40:39;4.90;;;1.80;;
62037;SDS011;47991;42.974;12.082;2022-08-21T09:45:39;4.70;;;1.70;;
62037;SDS011;47991;42.974;12.082;2022-08-21T09:48:22;3.60;;;1.60;;
62037;SDS011;47991;42.974;12.082;2022-08-21T09:50:52;3.60;;;1.60;;
62037;SDS011;47991;42.974;12.082;2022-08-21T09:56:05;2.20;;;1.40;;
62037;SDS011;47991;42.974;12.082;2022-08-21T09:59:12;3.00;;;1.30;;
62037;SDS011;47991;42.974;12.082;2022-08-21T10:01:42;3.10;;;1.60;;
62037;SDS011;47991;42.974;12.082;2022-08-21T10:04:11;1.70;;;1.10;;
62037;SDS011;47991;42.974;12.082;2022-08-21T10:06:39;3.30;;;1.40;;
62037;SDS011;47991;42.974;12.082;2022-08-21T10:09:09;1.70;;;1.20;;
62037;SDS011;47991;42.974;12.082;2022-08-21T10:11:52;2.20;;;1.50;;
62037;SDS011;47991;42.974;12.082;2022-08-21T10:14:41;2.20;;;1.40;;
62037;SDS011;47991;42.974;12.082;2022-08-21T10:17:24;1.40;;;1.30;;
62037;SDS011;47991;42.974;12.082;2022-08-21T10:22:38;3.20;;;1.60;;
62037;SDS011;47991;42.974;12.082;2022-08-21T10:31:10;2.30;;;1.30;;
62037;SDS011;47991;42.974;12.082;2022-08-21T10:36:55;2.10;;;1.50;;
62037;SDS011;47991;42.974;12.082;2022-08-21T10:39:48;2.30;;;1.60;;
62037;SDS011;47991;42.974;12.082;2022-08-21T10:51:05;2.40;;;1.70;;
62037;SDS011;47991;42.974;12.082;2022-08-21T10:53:40;4.80;;;2.20;;
62037;SDS011;47991;42.974;12.082;2022-08-21T10:56:23;2.90;;;1.80;;
62037;SDS011;47991;42.974;12.082;2022-08-21T11:01:27;3.00;;;1.80;;
62037;SDS011;47991;42.974;12.082;2022-08-21T11:06:44;2.30;;;1.60;;
62037;SDS011;47991;42.974;12.082;2022-08-21T11:09:22;4.90;;;2.00;;
62037;SDS011;47991;42.974;12.082;2022-08-21T11:14:38;3.30;;;1.90;;
62037;SDS011;47991;42.974;12.082;2022-08-21T11:17:10;3.90;;;1.70;;
62037;SDS011;47991;42.974;12.082;2022-08-21T11:25:14;3.20;;;1.90;;
62037;SDS011;47991;42.974;12.082;2022-08-21T11:27:56;2.40;;;1.70;;
62037;SDS011;47991;42.974;12.082;2022-08-21T11:33:43;2.90;;;1.60;;
62037;SDS011;47991;42.974;12.082;2022-08-21T11:39:06;3.10;;;1.80;;
62037;SDS011;47991;42.974;12.082;2022-08-21T11:41:53;3.00;;;1.60;;
62037;SDS011;47991;42.974;12.082;2022-08-21T11:44:45;2.10;;;1.60;;
62037;SDS011;47991;42.974;12.082;2022-08-21T11:47:40;2.50;;;1.70;;
62037;SDS011;47991;42.974;12.082;2022-08-21T11:50:27;4.40;;;1.90;;
62037;SDS011;47991;42.974;12.082;2022-08-21T11:53:09;2.00;;;1.60;;
62037;SDS011;47991;42.974;12.082;2022-08-21T11:56:28;4.20;;;1.80;;
62037;SDS011;47991;42.974;12.082;2022-08-21T11:59:06;2.80;;;1.70;;
62037;SDS011;47991;42.974;12.082;2022-08-21T12:01:41;4.50;;;2.10;;
62037;SDS011;47991;42.974;12.082;2022-08-21T12:07:28;3.00;;;1.90;;
62037;SDS011;47991;42.974;12.082;2022-08-21T12:09:57;3.30;;;1.90;;
62037;SDS011;47991;42.974;12.082;2022-08-21T12:12:27;5.50;;;2.00;;
62037;SDS011;47991;42.974;12.082;2022-08-21T12:17:53;3.70;;;2.20;;
62037;SDS011;47991;42.974;12.082;2022-08-21T12:26:56;2.80;;;1.70;;
62037;SDS011;47991;42.974;12.082;2022-08-21T12:29:29;3.60;;;1.70;;
62037;SDS011;47991;42.974;12.082;2022-08-21T12:32:01;2.60;;;1.70;;
62037;SDS011;47991;42.974;12.082;2022-08-21T12:34:51;27.90;;;2.30;;
62037;SDS011;47991;42.974;12.082;2022-08-21T12:37:28;2.50;;;1.50;;
62037;SDS011;47991;42.974;12.082;2022-08-21T12:40:14;2.90;;;1.60;;
62037;SDS011;47991;42.974;12.082;2022-08-21T12:43:06;2.60;;;1.60;;
62037;SDS011;47991;42.974;12.082;2022-08-21T12:45:45;2.10;;;1.50;;
62037;SDS011;47991;42.974;12.082;2022-08-21T12:50:48;2.10;;;1.40;;
62037;SDS011;47991;42.974;12.082;2022-08-21T12:53:27;3.40;;;1.80;;
62037;SDS011;47991;42.974;12.082;2022-08-21T12:56:07;4.00;;;1.80;;
62037;SDS011;47991;42.974;12.082;2022-08-21T12:58:39;2.60;;;1.50;;
62037;SDS011;47991;42.974;12.082;2022-08-21T13:04:07;7.60;;;1.80;;
62037;SDS011;47991;42.974;12.082;2022-08-21T13:06:44;1.90;;;1.40;;
62037;SDS011;47991;42.974;12.082;2022-08-21T13:09:14;2.50;;;1.50;;
62037;SDS011;47991;42.974;12.082;2022-08-21T13:11:45;1.50;;;1.40;;
62037;SDS011;47991;42.974;12.082;2022-08-21T13:17:03;7.20;;;1.80;;
62037;SDS011;47991;42.974;12.082;2022-08-21T13:19:33;2.40;;;1.60;;
62037;SDS011;47991;42.974;12.082;2022-08-21T13:22:01;2.30;;;1.60;;
62037;SDS011;47991;42.974;12.082;2022-08-21T13:24:32;1.60;;;1.50;;
62037;SDS011;47991;42.974;12.082;2022-08-21T13:27:01;2.40;;;1.50;;
62037;SDS011;47991;42.974;12.082;2022-08-21T13:29:33;2.30;;;1.40;;
62037;SDS011;47991;42.974;12.082;2022-08-21T13:32:04;2.30;;;1.40;;
62037;SDS011;47991;42.974;12.082;2022-08-21T13:34:35;1.70;;;1.60;;
62037;SDS011;47991;42.974;12.082;2022-08-21T13:37:05;2.80;;;1.70;;
62037;SDS011;47991;42.974;12.082;2022-08-21T13:39:37;9.90;;;2.10;;
62037;SDS011;47991;42.974;12.082;2022-08-21T13:42:08;2.10;;;1.40;;
62037;SDS011;47991;42.974;12.082;2022-08-21T13:44:42;2.00;;;1.60;;
62037;SDS011;47991;42.974;12.082;2022-08-21T13:47:12;2.30;;;1.60;;
62037;SDS011;47991;42.974;12.082;2022-08-21T13:52:23;2.30;;;1.70;;
62037;SDS011;47991;42.974;12.082;2022-08-21T13:55:15;3.40;;;1.70;;
62037;SDS011;47991;42.974;12.082;2022-08-21T13:57:40;2.30;;;1.80;;
62037;SDS011;47991;42.974;12.082;2022-08-21T14:00:18;3.40;;;1.70;;
62037;SDS011;47991;42.974;12.082;2022-08-21T14:02:52;1.80;;;1.60;;
62037;SDS011;47991;42.974;12.082;2022-08-21T14:05:27;3.90;;;1.80;;
62037;SDS011;47991;42.974;12.082;2022-08-21T14:08:01;2.80;;;1.60;;
62037;SDS011;47991;42.974;12.082;2022-08-21T14:10:49;3.00;;;2.10;;
62037;SDS011;47991;42.974;12.082;2022-08-21T14:13:36;3.00;;;1.60;;
62037;SDS011;47991;42.974;12.082;2022-08-21T14:16:10;2.10;;;1.60;;
62037;SDS011;47991;42.974;12.082;2022-08-21T14:18:44;2.80;;;1.80;;
62037;SDS011;47991;42.974;12.082;2022-08-21T14:21:12;3.70;;;1.60;;
62037;SDS011;47991;42.974;12.082;2022-08-21T14:23:40;3.20;;;1.70;;
62037;SDS011;47991;42.974;12.082;2022-08-21T14:26:07;1.50;;;1.40;;
62037;SDS011;47991;42.974;12.082;2022-08-21T14:28:39;2.00;;;1.60;;
62037;SDS011;47991;42.974;12.082;2022-08-21T14:31:28;2.00;;;1.50;;
62037;SDS011;47991;42.974;12.082;2022-08-21T14:34:00;1.60;;;1.50;;
62037;SDS011;47991;42.974;12.082;2022-08-21T14:36:28;2.00;;;1.60;;
62037;SDS011;47991;42.974;12.082;2022-08-21T14:38:55;2.00;;;1.50;;
62037;SDS011;47991;42.974;12.082;2022-08-21T14:41:23;3.30;;;1.80;;
62037;SDS011;47991;42.974;12.082;2022-08-21T14:43:53;2.10;;;1.60;;
62037;SDS011;47991;42.974;12.082;2022-08-21T14:46:25;4.10;;;2.00;;
62037;SDS011;47991;42.974;12.082;2022-08-21T14:48:55;3.10;;;1.70;;
62037;SDS011;47991;42.974;12.082;2022-08-21T14:51:25;2.90;;;1.70;;
62037;SDS011;47991;42.974;12.082;2022-08-21T14:53:52;6.60;;;1.90;;
62037;SDS011;47991;42.974;12.082;2022-08-21T14:56:20;2.70;;;1.80;;
62037;SDS011;47991;42.974;12.082;2022-08-21T14:58:49;1.80;;;1.60;;
62037;SDS011;47991;42.974;12.082;2022-08-21T15:01:22;3.00;;;1.60;;
62037;SDS011;47991;42.974;12.082;2022-08-21T15:03:49;4.40;;;1.90;;
62037;SDS011;47991;42.974;12.082;2022-08-21T15:06:21;3.90;;;2.20;;
62037;SDS011;47991;42.974;12.082;2022-08-21T15:08:47;6.00;;;2.70;;
62037;SDS011;47991;42.974;12.082;2022-08-21T15:11:19;6.50;;;2.90;;
62037;SDS011;47991;42.974;12.082;2022-08-21T15:13:48;4.00;;;1.70;;
62037;SDS011;47991;42.974;12.082;2022-08-21T15:16:22;2.80;;;1.60;;
62037;SDS011;47991;42.974;12.082;2022-08-21T15:18:50;4.60;;;2.00;;
62037;SDS011;47991;42.974;12.082;2022-08-21T15:21:17;6.80;;;2.30;;
62037;SDS011;47991;42.974;12.082;2022-08-21T15:23:44;5.30;;;2.00;;
62037;SDS011;47991;42.974;12.082;2022-08-21T15:26:11;2.50;;;1.80;;
62037;SDS011;47991;42.974;12.082;2022-08-21T15:31:08;3.40;;;1.80;;
62037;SDS011;47991;42.974;12.082;2022-08-21T15:33:35;4.10;;;1.60;;
62037;SDS011;47991;42.974;12.082;2022-08-21T15:36:03;2.20;;;1.60;;
62037;SDS011;47991;42.974;12.082;2022-08-21T15:38:30;3.20;;;1.70;;
62037;SDS011;47991;42.974;12.082;2022-08-21T15:40:57;3.20;;;1.80;;
62037;SDS011;47991;42.974;12.082;2022-08-21T15:43:26;1.90;;;1.30;;
62037;SDS011;47991;42.974;12.082;2022-08-21T15:45:58;4.20;;;1.50;;
62037;SDS011;47991;42.974;12.082;2022-08-21T15:48:25;3.20;;;1.70;;
62037;SDS011;47991;42.974;12.082;2022-08-21T15:50:53;2.70;;;1.80;;
62037;SDS011;47991;42.974;12.082;2022-08-21T15:53:20;4.00;;;1.60;;
62037;SDS011;47991;42.974;12.082;2022-08-21T15:55:47;5.90;;;1.70;;
62037;SDS011;47991;42.974;12.082;2022-08-21T15:58:15;3.10;;;1.80;;
62037;SDS011;47991;42.974;12.082;2022-08-21T16:00:43;3.10;;;1.50;;
62037;SDS011;47991;42.974;12.082;2022-08-21T16:05:43;2.60;;;1.60;;
62037;SDS011;47991;42.974;12.082;2022-08-21T16:08:10;3.60;;;1.70;;
62037;SDS011;47991;42.974;12.082;2022-08-21T16:10:39;3.80;;;1.50;;
62037;SDS011;47991;42.974;12.082;2022-08-21T16:13:13;2.50;;;1.50;;
62037;SDS011;47991;42.974;12.082;2022-08-21T16:15:48;3.70;;;1.50;;
62037;SDS011;47991;42.974;12.082;2022-08-21T16:18:17;4.00;;;1.60;;
62037;SDS011;47991;42.974;12.082;2022-08-21T16:20:49;2.70;;;1.50;;
62037;SDS011;47991;42.974;12.082;2022-08-21T16:23:16;3.10;;;1.40;;
62037;SDS011;47991;42.974;12.082;2022-08-21T16:25:43;2.00;;;1.40;;
62037;SDS011;47991;42.974;12.082;2022-08-21T16:28:12;9.60;;;2.00;;
62037;SDS011;47991;42.974;12.082;2022-08-21T16:30:42;3.20;;;1.50;;
62037;SDS011;47991;42.974;12.082;2022-08-21T16:33:15;2.70;;;1.50;;
62037;SDS011;47991;42.974;12.082;2022-08-21T16:35:58;2.20;;;1.50;;
62037;SDS011;47991;42.974;12.082;2022-08-21T16:38:26;3.80;;;1.40;;
62037;SDS011;47991;42.974;12.082;2022-08-21T16:40:54;2.80;;;1.40;;
62037;SDS011;47991;42.974;12.082;2022-08-21T16:43:22;7.40;;;2.00;;
62037;SDS011;47991;42.974;12.082;2022-08-21T16:45:52;3.50;;;1.40;;
62037;SDS011;47991;42.974;12.082;2022-08-21T16:48:20;5.00;;;1.50;;
62037;SDS011;47991;42.974;12.082;2022-08-21T16:50:47;3.80;;;1.80;;
62037;SDS011;47991;42.974;12.082;2022-08-21T16:53:15;2.70;;;1.50;;
62037;SDS011;47991;42.974;12.082;2022-08-21T16:55:42;5.60;;;1.70;;
62037;SDS011;47991;42.974;12.082;2022-08-21T16:58:16;4.60;;;1.60;;
62037;SDS011;47991;42.974;12.082;2022-08-21T17:01:05;3.00;;;1.70;;
62037;SDS011;47991;42.974;12.082;2022-08-21T17:03:38;4.50;;;1.60;;
62037;SDS011;47991;42.974;12.082;2022-08-21T17:06:07;1.90;;;1.40;;
62037;SDS011;47991;42.974;12.082;2022-08-21T17:08:35;4.10;;;1.50;;
62037;SDS011;47991;42.974;12.082;2022-08-21T17:11:02;3.10;;;1.40;;
62037;SDS011;47991;42.974;12.082;2022-08-21T17:13:34;3.00;;;1.60;;
62037;SDS011;47991;42.974;12.082;2022-08-21T17:16:02;3.70;;;1.70;;
62037;SDS011;47991;42.974;12.082;2022-08-21T17:18:29;5.20;;;1.60;;
62037;SDS011;47991;42.974;12.082;2022-08-21T17:20:56;2.20;;;1.50;;
62037;SDS011;47991;42.974;12.082;2022-08-21T17:23:23;3.50;;;1.60;;
62037;SDS011;47991;42.974;12.082;2022-08-21T17:25:55;2.80;;;1.70;;
62037;SDS011;47991;42.974;12.082;2022-08-21T17:28:23;4.10;;;1.50;;
62037;SDS011;47991;42.974;12.082;2022-08-21T17:30:57;2.70;;;1.70;;
62037;SDS011;47991;42.974;12.082;2022-08-21T17:33:57;5.00;;;1.60;;
62037;SDS011;47991;42.974;12.082;2022-08-21T17:36:47;1.60;;;1.40;;
62037;SDS011;47991;42.974;12.082;2022-08-21T17:39:36;3.30;;;1.60;;
62037;SDS011;47991;42.974;12.082;2022-08-21T17:42:26;4.90;;;1.60;;
62037;SDS011;47991;42.974;12.082;2022-08-21T17:45:15;3.90;;;1.60;;
62037;SDS011;47991;42.974;12.082;2022-08-21T17:48:17;3.60;;;1.70;;
62037;SDS011;47991;42.974;12.082;2022-08-21T17:51:06;3.60;;;1.70;;
62037;SDS011;47991;42.974;12.082;2022-08-21T17:53:36;3.40;;;1.60;;
62037;SDS011;47991;42.974;12.082;2022-08-21T17:56:04;4.60;;;1.50;;
62037;SDS011;47991;42.974;12.082;2022-08-21T17:58:32;3.70;;;1.50;;
62037;SDS011;47991;42.974;12.082;2022-08-21T18:01:01;1.90;;;1.50;;
62037;SDS011;47991;42.974;12.082;2022-08-21T18:03:30;3.90;;;1.60;;
62037;SDS011;47991;42.974;12.082;2022-08-21T18:05:59;4.00;;;1.70;;
62037;SDS011;47991;42.974;12.082;2022-08-21T18:08:26;2.90;;;1.60;;
62037;SDS011;47991;42.974;12.082;2022-08-21T18:10:54;6.80;;;1.80;;
62037;SDS011;47991;42.974;12.082;2022-08-21T18:13:25;4.80;;;1.90;;
62037;SDS011;47991;42.974;12.082;2022-08-21T18:15:55;2.70;;;1.60;;
62037;SDS011;47991;42.974;12.082;2022-08-21T18:18:25;4.90;;;1.90;;
62037;SDS011;47991;42.974;12.082;2022-08-21T18:20:53;3.10;;;1.60;;
62037;SDS011;47991;42.974;12.082;2022-08-21T18:23:25;4.10;;;1.50;;
62037;SDS011;47991;42.974;12.082;2022-08-21T18:25:54;4.70;;;1.70;;
62037;SDS011;47991;42.974;12.082;2022-08-21T18:28:25;4.60;;;1.80;;
62037;SDS011;47991;42.974;12.082;2022-08-21T18:30:53;6.40;;;1.80;;
62037;SDS011;47991;42.974;12.082;2022-08-21T18:33:21;3.30;;;1.60;;
62037;SDS011;47991;42.974;12.082;2022-08-21T18:35:48;3.80;;;1.60;;
62037;SDS011;47991;42.974;12.082;2022-08-21T18:38:16;3.10;;;1.60;;
62037;SDS011;47991;42.974;12.082;2022-08-21T18:40:48;7.10;;;1.80;;
62037;SDS011;47991;42.974;12.082;2022-08-21T18:43:17;4.50;;;1.90;;
62037;SDS011;47991;42.974;12.082;2022-08-21T18:45:45;3.70;;;1.80;;
62037;SDS011;47991;42.974;12.082;2022-08-21T18:48:12;6.30;;;2.00;;
62037;SDS011;47991;42.974;12.082;2022-08-21T18:50:42;4.00;;;1.90;;
62037;SDS011;47991;42.974;12.082;2022-08-21T18:53:11;4.40;;;1.70;;
62037;SDS011;47991;42.974;12.082;2022-08-21T18:55:39;3.20;;;1.40;;
62037;SDS011;47991;42.974;12.082;2022-08-21T18:58:08;2.60;;;1.50;;
62037;SDS011;47991;42.974;12.082;2022-08-21T19:00:38;2.50;;;1.60;;
62037;SDS011;47991;42.974;12.082;2022-08-21T19:03:11;4.80;;;1.50;;
62037;SDS011;47991;42.974;12.082;2022-08-21T19:05:40;3.10;;;1.50;;
62037;SDS011;47991;42.974;12.082;2022-08-21T19:08:13;6.90;;;1.50;;
62037;SDS011;47991;42.974;12.082;2022-08-21T19:10:42;5.60;;;1.70;;
62037;SDS011;47991;42.974;12.082;2022-08-21T19:13:12;4.30;;;1.70;;
62037;SDS011;47991;42.974;12.082;2022-08-21T19:15:42;4.70;;;1.50;;
62037;SDS011;47991;42.974;12.082;2022-08-21T19:18:12;3.70;;;1.50;;
62037;SDS011;47991;42.974;12.082;2022-08-21T19:20:42;4.50;;;1.80;;
62037;SDS011;47991;42.974;12.082;2022-08-21T19:23:12;4.10;;;1.70;;